Time;durP1;ratioP1;P1;durP2;ratioP2;P2;SDS_P1;SDS_P2;PMS_P1;PMS_P2;Temp;Humidity;BMP_temperature;BMP_pressure;BME280_temperature;BME280_humidity;BME280_pressure;Samples;Min_cycle;Max_cycle;Signal;HPM_P1;HPM_P2
2023/03/07 00:00:00;;;;;;;;;;;;;;;-144.98;100.00;62585.19;4929724;29;20286;-63
2023/03/07 00:03:03;;;;;;;;;;;;;;;-144.98;100.00;62585.19;4928506;29;19926;-63
2023/03/07 00:06:07;;;;;;;;;;;;;;;-144.98;100.00;62585.19;4943133;29;19941;-63
2023/03/07 00:09:11;;;;;;;;;;;;;;;-144.98;100.00;62585.19;4935709;29;19974;-63
2023/03/07 00:12:13;;;;;;;;;;;;;;;-144.98;100.00;62585.19;4921579;29;19925;-64
2023/03/07 00:15:16;;;;;;;;;;;;;;;-144.98;100.00;62585.19;4936778;29;19925;-64
2023/03/07 00:18:20;;;;;;;;;;;;;;;-144.98;100.00;62585.19;4941376;29;19970;-63
2023/03/07 00:21:26;;;;;;;;;;;;;;;-144.98;100.00;62585.19;4942298;29;19925;-63
2023/03/07 00:24:29;;;;;;;;;;;;;;;-144.98;100.00;62585.19;4936395;29;20040;-64
2023/03/07 00:27:33;;;;;;;;;;;;;;;-144.98;100.00;62585.19;4940562;29;19926;-64
2023/03/07 00:30:36;;;;;;;;;;;;;;;-144.98;100.00;62585.19;4923934;29;19926;-63
2023/03/07 00:33:40;;;;;;;;;;;;;;;-144.98;100.00;62585.19;4941252;29;19965;-63
2023/03/07 00:36:43;;;;;;;;;;;;;;;-144.98;100.00;62585.19;4931610;29;20029;-63
2023/03/07 00:39:46;;;;;;;;;;;;;;;-144.98;100.00;62585.19;4941755;29;20342;-64
2023/03/07 00:42:49;;;;;;;;;;;;;;;-144.98;100.00;62585.19;4942200;29;19925;-63
2023/03/07 00:45:53;;;;;;;;;;;;;;;-144.98;100.00;62585.19;4914069;29;20401;-64
2023/03/07 00:48:57;;;;;;;;;;;;;;;-144.98;100.00;62585.19;4924836;29;19974;-63
2023/03/07 00:52:00;;;;;;;;;;;;;;;-144.98;100.00;62585.19;4912656;29;19925;-64
2023/03/07 00:55:04;;;;;;;;;;;;;;;-144.98;100.00;62585.19;4906929;29;19934;-64
2023/03/07 00:58:08;;;;;;;;;;;;;;;-144.98;100.00;62585.19;4910725;29;20419;-63
2023/03/07 01:01:12;;;;;;;;;;;;;;;-144.98;100.00;62585.19;4923148;29;20017;-63
2023/03/07 01:04:15;;;;;;;;;;;;;;;-144.98;100.00;62585.19;4914491;29;20022;-64
2023/03/07 01:07:18;;;;;;;;;;;;;;;-144.98;100.00;62585.19;4901021;29;19925;-64
2023/03/07 01:10:21;;;;;;;;;;;;;;;-144.98;100.00;62585.19;4910078;29;19925;-64
2023/03/07 01:13:25;;;;;;;;;;;;;;;-144.98;100.00;62585.19;4910187;29;20399;-64
2023/03/07 01:16:29;;;;;;;;;;;;;;;-144.98;100.00;62585.19;4923661;29;19929;-64
2023/03/07 01:19:32;;;;;;;;;;;;;;;-144.98;100.00;62585.19;4913986;29;19934;-63
2023/03/07 01:22:35;;;;;;;;;;;;;;;-144.98;100.00;62585.19;4926380;29;19929;-63
2023/03/07 01:25:39;;;;;;;;;;;;;;;-144.98;100.00;62585.19;4903670;29;19925;-63
2023/03/07 01:28:42;;;;;;;;;;;;;;;-144.98;100.00;62585.19;4909226;29;19938;-64
2023/03/07 01:31:45;;;;;;;;;;;;;;;-144.98;100.00;62585.19;4914756;29;19926;-64
2023/03/07 01:34:49;;;;;;;;;;;;;;;-144.98;100.00;62585.19;4935529;29;20323;-64
2023/03/07 01:37:53;;;;;;;;;;;;;;;-144.98;100.00;62585.19;4935521;29;20005;-64
2023/03/07 01:40:56;;;;;;;;;;;;;;;-144.98;100.00;62585.19;4923849;29;19931;-64
2023/03/07 01:44:01;;;;;;;;;;;;;;;-144.98;100.00;62585.19;4923459;29;19925;-64
2023/03/07 01:47:06;;;;;;;;;;;;;;;-144.98;100.00;62585.19;4923007;29;19930;-64
2023/03/07 01:50:26;;;;;;;;;;;;;;;-144.98;100.00;62585.19;4921826;29;20395;-64
2023/03/07 01:53:29;;;;;;;;;;;;;;;-144.98;100.00;62585.19;4922610;29;19978;-64
2023/03/07 01:56:33;;;;;;;;;;;;;;;-144.98;100.00;62585.19;4923206;29;20030;-64
2023/03/07 01:59:41;;;;;;;;;;;;;;;-144.98;100.00;62585.19;4935461;29;20055;-64
2023/03/07 02:02:46;;;;;;;;;;;;;;;-144.98;100.00;62585.19;4922322;29;20305;-64
2023/03/07 02:05:57;;;;;;;;;;;;;;;-144.98;100.00;62585.19;4923091;29;19926;-64
2023/03/07 02:09:01;;;;;;;;;;;;;;;-144.98;100.00;62585.19;4921663;29;19982;-64
2023/03/07 02:12:05;;;;;;;;;;;;;;;-144.98;100.00;62585.19;4933479;29;19929;-64
2023/03/07 02:15:09;;;;;;;;;;;;;;;-144.98;100.00;62585.19;4922660;29;20047;-64
2023/03/07 02:18:14;;;;;;;;;;;;;;;-144.98;100.00;62585.19;4933592;29;20030;-64
2023/03/07 02:21:25;;;;;;;;;;;;;;;-144.98;100.00;62585.19;4934615;29;20013;-64
2023/03/07 02:24:32;;;;;;;;;;;;;;;-144.98;100.00;62585.19;4933300;29;20335;-64
2023/03/07 02:27:36;;;;;;;;;;;;;;;-144.98;100.00;62585.19;4925047;29;19936;-64
2023/03/07 02:30:51;;;;;;;;;;;;;;;-144.98;100.00;62585.19;4927666;29;19942;-64
2023/03/07 02:33:54;;;;;;;;;;;;;;;-144.98;100.00;62585.19;4925476;29;19961;-64
2023/03/07 02:37:00;;;;;;;;;;;;;;;-144.98;100.00;62585.19;4926678;29;19930;-64
2023/03/07 02:40:05;;;;;;;;;;;;;;;-144.98;100.00;62585.19;4927213;29;19969;-64
2023/03/07 02:43:09;;;;;;;;;;;;;;;-144.98;100.00;62585.19;4926379;29;20295;-64
2023/03/07 02:46:14;;;;;;;;;;;;;;;-144.98;100.00;62585.19;4935858;29;19930;-64
2023/03/07 02:49:18;;;;;;;;;;;;;;;-144.98;100.00;62585.19;4957581;29;20386;-64
2023/03/07 02:52:22;;;;;;;;;;;;;;;-144.98;100.00;62585.19;4945864;29;19926;-64
2023/03/07 02:55:34;;;;;;;;;;;;;;;-144.98;100.00;62585.19;4946105;29;19926;-64
2023/03/07 02:58:39;;;;;;;;;;;;;;;-144.98;100.00;62585.19;4944221;29;19930;-64
2023/03/07 03:01:43;;;;;;;;;;;;;;;-144.98;100.00;62585.19;4956441;29;19925;-64
2023/03/07 03:04:46;;;;;;;;;;;;;;;-144.98;100.00;62585.19;4945355;29;20438;-64
2023/03/07 03:07:50;;;;;;;;;;;;;;;-144.98;100.00;62585.19;4956589;29;19925;-64
2023/03/07 03:10:53;;;;;;;;;;;;;;;-144.98;100.00;62585.19;4956484;29;19930;-64
2023/03/07 03:13:58;;;;;;;;;;;;;;;-144.98;100.00;62585.19;4945376;29;19974;-64
2023/03/07 03:17:02;;;;;;;;;;;;;;;-144.98;100.00;62585.19;4957255;29;20310;-64
2023/03/07 03:20:07;;;;;;;;;;;;;;;-144.98;100.00;62585.19;4945296;29;20429;-64
2023/03/07 03:23:11;;;;;;;;;;;;;;;-144.98;100.00;62585.19;4957049;28;19965;-64
2023/03/07 03:26:14;;;;;;;;;;;;;;;-144.98;100.00;62585.19;4957501;29;20410;-64
2023/03/07 03:29:17;;;;;;;;;;;;;;;-144.98;100.00;62585.19;4945009;29;19924;-63
2023/03/07 03:32:21;;;;;;;;;;;;;;;-144.98;100.00;62585.19;4944964;29;19926;-63
2023/03/07 03:35:24;;;;;;;;;;;;;;;-144.98;100.00;62585.19;4944961;29;19925;-64
2023/03/07 03:38:32;;;;;;;;;;;;;;;-144.98;100.00;62585.19;4943800;29;19969;-64
2023/03/07 03:41:36;;;;;;;;;;;;;;;-144.98;100.00;62585.19;4944832;29;19994;-64
2023/03/07 03:44:39;;;;;;;;;;;;;;;-144.98;100.00;62585.19;4957154;29;20038;-63
2023/03/07 03:47:42;;;;;;;;;;;;;;;-144.98;100.00;62585.19;4938033;29;19933;-64
2023/03/07 03:50:45;;;;;;;;;;;;;;;-144.98;100.00;62585.19;4925424;29;19961;-64
2023/03/07 03:53:48;;;;;;;;;;;;;;;-144.98;100.00;62585.19;4936069;29;20414;-64
2023/03/07 03:56:59;;;;;;;;;;;;;;;-144.98;100.00;62585.19;4937021;29;19929;-64
2023/03/07 04:00:08;;;;;;;;;;;;;;;-144.98;100.00;62585.19;4926347;29;19929;-64
2023/03/07 04:03:15;;;;;;;;;;;;;;;-144.98;100.00;62585.19;4936408;29;20408;-64
2023/03/07 04:06:20;;;;;;;;;;;;;;;-144.98;100.00;62585.19;4925556;29;20002;-64
2023/03/07 04:09:24;;;;;;;;;;;;;;;-144.98;100.00;62585.19;4937234;29;19966;-64
2023/03/07 04:12:27;;;;;;;;;;;;;;;-144.98;100.00;62585.19;4937006;29;20054;-64
2023/03/07 04:15:30;;;;;;;;;;;;;;;-144.98;100.00;62585.19;4937133;29;20013;-64
2023/03/07 04:18:33;;;;;;;;;;;;;;;-144.98;100.00;62585.19;4925028;29;20427;-64
2023/03/07 04:21:38;;;;;;;;;;;;;;;-144.98;100.00;62585.19;4918630;29;19926;-64
2023/03/07 04:24:41;;;;;;;;;;;;;;;-144.98;100.00;62585.19;4936728;29;19925;-64
2023/03/07 04:27:45;;;;;;;;;;;;;;;-144.98;100.00;62585.19;4936904;29;19925;-64
2023/03/07 04:30:49;;;;;;;;;;;;;;;-144.98;100.00;62585.19;4935702;29;20287;-64
2023/03/07 04:33:52;;;;;;;;;;;;;;;-144.98;100.00;62585.19;4925016;29;20064;-64
2023/03/07 04:36:55;;;;;;;;;;;;;;;-144.98;100.00;62585.19;4935675;29;20462;-64
2023/03/07 04:39:59;;;;;;;;;;;;;;;-144.98;100.00;62585.19;4936550;29;19929;-64
2023/03/07 04:43:04;;;;;;;;;;;;;;;-144.98;100.00;62585.19;4935496;29;19929;-63
2023/03/07 04:46:07;;;;;;;;;;;;;;;-144.98;100.00;62585.19;4924473;29;19972;-65
2023/03/07 04:49:11;;;;;;;;;;;;;;;-144.98;100.00;62585.19;4936004;29;19949;-64
2023/03/07 04:52:15;;;;;;;;;;;;;;;-144.98;100.00;62585.19;4924382;29;19942;-63
2023/03/07 04:55:19;;;;;;;;;;;;;;;-144.98;100.00;62585.19;4924279;29;20026;-64
2023/03/07 04:58:23;;;;;;;;;;;;;;;-144.98;100.00;62585.19;4923988;29;20070;-64
2023/03/07 05:01:26;;;;;;;;;;;;;;;-144.98;100.00;62585.19;4924248;29;19973;-64
2023/03/07 05:04:29;;;;;;;;;;;;;;;-144.98;100.00;62585.19;4924092;29;20290;-64
2023/03/07 05:07:33;;;;;;;;;;;;;;;-144.98;100.00;62585.19;4931245;29;19982;-64
2023/03/07 05:10:36;;;;;;;;;;;;;;;-144.98;100.00;62585.19;4924090;29;19947;-64
2023/03/07 05:13:40;;;;;;;;;;;;;;;-144.98;100.00;62585.19;4923932;29;20390;-66
2023/03/07 05:20:43;;;;;;;;;;;;;;;-144.98;100.00;62585.19;4933679;29;19930;-64
2023/03/07 05:23:47;;;;;;;;;;;;;;;-144.98;100.00;62585.19;4921291;29;20439;-64
2023/03/07 05:30:53;;;;;;;;;;;;;;;-144.98;100.00;62585.19;4932975;29;20017;-63
2023/03/07 05:33:57;;;;;;;;;;;;;;;-144.98;100.00;62585.19;4918241;29;19925;-64
2023/03/07 05:37:01;;;;;;;;;;;;;;;-144.98;100.00;62585.19;4904984;29;19947;-65
2023/03/07 05:40:08;;;;;;;;;;;;;;;-144.98;100.00;62585.19;4904814;29;19947;-64
2023/03/07 05:43:12;;;;;;;;;;;;;;;-144.98;100.00;62585.19;4904666;29;20047;-69
2023/03/07 05:46:15;;;;;;;;;;;;;;;-144.98;100.00;62585.19;4902693;29;19930;-64
2023/03/07 05:49:18;;;;;;;;;;;;;;;-144.98;100.00;62585.19;4902313;29;19953;-63
2023/03/07 05:52:43;;;;;;;;;;;;;;;-144.98;100.00;62585.19;4915240;29;20010;-64
2023/03/07 05:55:47;;;;;;;;;;;;;;;-144.98;100.00;62585.19;4903285;29;19963;-64
2023/03/07 05:58:53;;;;;;;;;;;;;;;-144.98;100.00;62585.19;4914567;29;19941;-63
2023/03/07 06:01:59;;;;;;;;;;;;;;;-144.98;100.00;62585.19;4903646;29;19926;-64
2023/03/07 06:05:04;;;;;;;;;;;;;;;-144.98;100.00;62585.19;4916441;29;20026;-65
2023/03/07 06:08:07;;;;;;;;;;;;;;;-144.98;100.00;62585.19;4916781;29;19925;-64
2023/03/07 06:11:11;;;;;;;;;;;;;;;-144.98;100.00;62585.19;4916277;29;20073;-63
2023/03/07 06:14:16;;;;;;;;;;;;;;;-144.98;100.00;62585.19;4904927;29;20118;-63
2023/03/07 06:17:20;;;;;;;;;;;;;;;-144.98;100.00;62585.19;4916262;29;19930;-64
2023/03/07 06:20:24;;;;;;;;;;;;;;;-144.98;100.00;62585.19;4904756;29;19967;-64
2023/03/07 06:23:32;;;;;;;;;;;;;;;-144.98;100.00;62585.19;4904864;29;19998;-62
2023/03/07 06:26:35;;;;;;;;;;;;;;;-144.98;100.00;62585.19;4916474;29;20382;-62
2023/03/07 06:29:39;;;;;;;;;;;;;;;-144.98;100.00;62585.19;4904376;29;19926;-63
2023/03/07 06:32:43;;;;;;;;;;;;;;;-144.98;100.00;62585.19;4904313;29;19926;-62
2023/03/07 06:35:46;;;;;;;;;;;;;;;-144.98;100.00;62585.19;4911920;29;20332;-62
2023/03/07 06:38:49;;;;;;;;;;;;;;;-144.98;100.00;62585.19;4903358;29;19929;-62
2023/03/07 06:41:52;;;;;;;;;;;;;;;-144.98;100.00;62585.19;4903883;29;19931;-63
2023/03/07 06:44:56;;;;;;;;;;;;;;;-144.98;100.00;62585.19;4915552;29;19926;-63
2023/03/07 06:51:54;;;;;;;;;;;;;;;-144.98;100.00;62585.19;4904432;29;19974;-63
2023/03/07 06:54:58;;;;;;;;;;;;;;;-144.98;100.00;62585.19;4915553;29;19974;-62
2023/03/07 06:58:01;;;;;;;;;;;;;;;-144.98;100.00;62585.19;4915876;29;19997;-63
2023/03/07 07:01:04;;;;;;;;;;;;;;;-144.98;100.00;62585.19;4915636;29;19974;-62
2023/03/07 07:04:10;;;;;;;;;;;;;;;-144.98;100.00;62585.19;4903531;29;19942;-62
2023/03/07 07:07:14;;;;;;;;;;;;;;;-144.98;100.00;62585.19;4903955;29;20382;-63
2023/03/07 07:14:12;;;;;;;;;;;;;;;-144.98;100.00;62585.19;4905835;29;19970;-63
2023/03/07 07:17:16;;;;;;;;;;;;;;;-144.98;100.00;62585.19;4918792;29;20029;-63
2023/03/07 07:20:19;;;;;;;;;;;;;;;-144.98;100.00;62585.19;4907474;29;20399;-62
2023/03/07 07:23:23;;;;;;;;;;;;;;;-144.98;100.00;62585.19;4918120;29;19997;-62
2023/03/07 07:26:26;;;;;;;;;;;;;;;-144.98;100.00;62585.19;4907032;29;19974;-62
2023/03/07 07:29:29;;;;;;;;;;;;;;;-144.98;100.00;62585.19;4918146;29;19926;-62
2023/03/07 07:32:33;;;;;;;;;;;;;;;-144.98;100.00;62585.19;4918685;29;19969;-62
2023/03/07 07:35:38;;;;;;;;;;;;;;;-144.98;100.00;62585.19;4907316;29;20337;-62
2023/03/07 07:38:41;;;;;;;;;;;;;;;-144.98;100.00;62585.19;4907075;29;19930;-63
2023/03/07 07:41:46;;;;;;;;;;;;;;;-144.98;100.00;62585.19;4918797;29;19958;-63
2023/03/07 07:44:54;;;;;;;;;;;;;;;-144.98;100.00;62585.19;4906984;29;19925;-64
2023/03/07 07:47:57;;;;;;;;;;;;;;;-144.98;100.00;62585.19;4906177;29;20013;-64
2023/03/07 08:00:08;;;;;;;;;;;;;;;-144.98;100.00;62585.19;4913542;29;20014;-65
2023/03/07 08:03:15;;;;;;;;;;;;;;;-144.98;100.00;62585.19;4918326;29;20299;-65
2023/03/07 08:06:19;;;;;;;;;;;;;;;-144.98;100.00;62585.19;4917632;29;19967;-66
2023/03/07 08:09:22;;;;;;;;;;;;;;;-144.98;100.00;62585.19;4917512;29;19926;-68
2023/03/07 08:12:25;;;;;;;;;;;;;;;-144.98;100.00;62585.19;4916991;29;19997;-63
2023/03/07 08:15:28;;;;;;;;;;;;;;;-144.98;100.00;62585.19;4917310;29;20303;-70
2023/03/07 08:18:32;;;;;;;;;;;;;;;-144.98;100.00;62585.19;4917660;29;19982;-65
2023/03/07 08:21:35;;;;;;;;;;;;;;;-144.98;100.00;62585.19;4928065;29;19942;-65
2023/03/07 08:24:49;;;;;;;;;;;;;;;-144.98;100.00;62585.19;4935864;29;19997;-64
2023/03/07 08:27:56;;;;;;;;;;;;;;;-144.98;100.00;62585.19;4937053;29;19929;-65
2023/03/07 08:31:15;;;;;;;;;;;;;;;-144.98;100.00;62585.19;4936939;29;20017;-65
2023/03/07 08:34:19;;;;;;;;;;;;;;;-144.98;100.00;62585.19;4936480;29;19966;-64
2023/03/07 08:37:22;;;;;;;;;;;;;;;-144.98;100.00;62585.19;4936014;29;20391;-65
2023/03/07 08:40:29;;;;;;;;;;;;;;;-144.98;100.00;62585.19;4936663;29;19930;-66
2023/03/07 08:43:35;;;;;;;;;;;;;;;-144.98;100.00;62585.19;4936852;29;20070;-65
2023/03/07 08:46:38;;;;;;;;;;;;;;;-144.98;100.00;62585.19;4924765;29;20444;-66
2023/03/07 08:49:48;;;;;;;;;;;;;;;-144.98;100.00;62585.19;4914890;29;20614;-65
2023/03/07 08:52:51;;;;;;;;;;;;;;;-144.98;100.00;62585.19;4934376;29;19926;-66
2023/03/07 08:59:48;;;;;;;;;;;;;;;-144.98;100.00;62585.19;4936197;29;20331;-66
2023/03/07 09:03:43;;;;;;;;;;;;;;;-144.98;100.00;62585.19;4936188;29;19982;-66
2023/03/07 09:06:46;;;;;;;;;;;;;;;-144.98;100.00;62585.19;4933080;29;20013;-65
2023/03/07 09:09:49;;;;;;;;;;;;;;;-144.98;100.00;62585.19;4924202;29;19942;-64
2023/03/07 09:12:54;;;;;;;;;;;;;;;-144.98;100.00;62585.19;4934142;29;19937;-66
2023/03/07 09:15:57;;;;;;;;;;;;;;;-144.98;100.00;62585.19;4934483;29;19998;-66
2023/03/07 09:19:00;;;;;;;;;;;;;;;-144.98;100.00;62585.19;4936108;29;19946;-67
2023/03/07 09:22:03;;;;;;;;;;;;;;;-144.98;100.00;62585.19;4936112;29;19930;-66
2023/03/07 09:25:07;;;;;;;;;;;;;;;-144.98;100.00;62585.19;4935659;29;20327;-66
2023/03/07 09:28:11;;;;;;;;;;;;;;;-144.98;100.00;62585.19;4934320;29;20339;-66
2023/03/07 09:31:14;;;;;;;;;;;;;;;-144.98;100.00;62585.19;4935377;29;20014;-65
2023/03/07 09:34:17;;;;;;;;;;;;;;;-144.98;100.00;62585.19;4934856;29;19982;-66
2023/03/07 09:37:20;;;;;;;;;;;;;;;-144.98;100.00;62585.19;4934651;29;20415;-66
2023/03/07 09:40:27;;;;;;;;;;;;;;;-144.98;100.00;62585.19;4935429;29;20386;-66
2023/03/07 09:43:49;;;;;;;;;;;;;;;-144.98;100.00;62585.19;4935769;29;19960;-66
2023/03/07 09:47:38;;;;;;;;;;;;;;;-144.98;100.00;62585.19;4931103;29;19929;-65
2023/03/07 09:50:51;;;;;;;;;;;;;;;-144.98;100.00;62585.19;4935565;29;20429;-66
2023/03/07 09:53:55;;;;;;;;;;;;;;;-144.98;100.00;62585.19;4935154;29;19978;-66
2023/03/07 09:56:59;;;;;;;;;;;;;;;-144.98;100.00;62585.19;4935507;29;19951;-66
2023/03/07 10:00:19;;;;;;;;;;;;;;;-144.98;100.00;62585.19;4935514;29;19929;-66
2023/03/07 10:03:33;;;;;;;;;;;;;;;-144.98;100.00;62585.19;4935744;29;19926;-66
2023/03/07 10:06:44;;;;;;;;;;;;;;;-144.98;100.00;62585.19;4935260;29;19926;-66
2023/03/07 10:09:50;;;;;;;;;;;;;;;-144.98;100.00;62585.19;4935133;29;20475;-66
2023/03/07 10:12:59;;;;;;;;;;;;;;;-144.98;100.00;62585.19;4935258;29;19930;-66
2023/03/07 10:16:11;;;;;;;;;;;;;;;-144.98;100.00;62585.19;4935487;29;20401;-65
2023/03/07 10:19:24;;;;;;;;;;;;;;;-144.98;100.00;62585.19;4934892;29;20311;-66
2023/03/07 10:22:27;;;;;;;;;;;;;;;-144.98;100.00;62585.19;4935218;29;19946;-66
2023/03/07 10:25:33;;;;;;;;;;;;;;;-144.98;100.00;62585.19;4935014;29;20010;-65
2023/03/07 10:28:40;;;;;;;;;;;;;;;-144.98;100.00;62585.19;4935102;29;20010;-66
2023/03/07 10:40:22;;;;;;;;;;;;;;;-144.98;100.00;62585.19;4904006;29;19930;-66
2023/03/07 10:43:29;;;;;;;;;;;;;;;-144.98;100.00;62585.19;4935403;29;19972;-66
2023/03/07 10:46:36;;;;;;;;;;;;;;;-144.98;100.00;62585.19;4934925;29;20435;-65
2023/03/07 10:49:43;;;;;;;;;;;;;;;-144.98;100.00;62585.19;4938718;29;19925;-66
2023/03/07 10:52:52;;;;;;;;;;;;;;;-144.98;100.00;62585.19;4937697;29;20418;-65
2023/03/07 10:56:22;;;;;;;;;;;;;;;-144.98;100.00;62585.19;4938758;29;19926;-65
2023/03/07 10:59:29;;;;;;;;;;;;;;;-144.98;100.00;62585.19;4938887;29;19985;-65
2023/03/07 11:02:45;;;;;;;;;;;;;;;-144.98;100.00;62585.19;4938610;29;19947;-65
2023/03/07 11:05:52;;;;;;;;;;;;;;;-144.98;100.00;62585.19;4938801;29;19925;-65
2023/03/07 11:08:56;;;;;;;;;;;;;;;-144.98;100.00;62585.19;4938364;29;19942;-65
2023/03/07 11:12:03;;;;;;;;;;;;;;;-144.98;100.00;62585.19;4926016;29;19929;-65
2023/03/07 11:15:10;;;;;;;;;;;;;;;-144.98;100.00;62585.19;4938286;29;19930;-64
2023/03/07 11:18:25;;;;;;;;;;;;;;;-144.98;100.00;62585.19;4918999;29;19930;-65
2023/03/07 11:21:30;;;;;;;;;;;;;;;-144.98;100.00;62585.19;4938120;29;19926;-65
2023/03/07 11:24:37;;;;;;;;;;;;;;;-144.98;100.00;62585.19;4937979;29;20390;-65
2023/03/07 11:27:53;;;;;;;;;;;;;;;-144.98;100.00;62585.19;4938178;29;19961;-65
2023/03/07 11:31:18;;;;;;;;;;;;;;;-144.98;100.00;62585.19;4938335;29;19966;-65
2023/03/07 11:34:25;;;;;;;;;;;;;;;-144.98;100.00;62585.19;4938320;29;19954;-65
2023/03/07 11:37:38;;;;;;;;;;;;;;;-144.98;100.00;62585.19;4937985;29;20342;-64
2023/03/07 11:40:51;;;;;;;;;;;;;;;-144.98;100.00;62585.19;4937998;29;19926;-65
2023/03/07 11:44:14;;;;;;;;;;;;;;;-144.98;100.00;62585.19;4937709;29;20037;-65
2023/03/07 11:47:17;;;;;;;;;;;;;;;-144.98;100.00;62585.19;4937540;29;20299;-66
2023/03/07 11:50:22;;;;;;;;;;;;;;;-144.98;100.00;62585.19;4937842;29;20393;-65
2023/03/07 11:53:36;;;;;;;;;;;;;;;-144.98;100.00;62585.19;4937549;29;19947;-66
2023/03/07 11:56:43;;;;;;;;;;;;;;;-144.98;100.00;62585.19;4937148;29;19974;-66
2023/03/07 11:59:50;;;;;;;;;;;;;;;-144.98;100.00;62585.19;4936469;29;20018;-65
2023/03/07 12:02:59;;;;;;;;;;;;;;;-144.98;100.00;62585.19;4937349;29;19978;-65
2023/03/07 12:06:11;;;;;;;;;;;;;;;-144.98;100.00;62585.19;4937531;29;19982;-65
2023/03/07 12:09:22;;;;;;;;;;;;;;;-144.98;100.00;62585.19;4937294;29;20427;-65
2023/03/07 12:12:35;;;;;;;;;;;;;;;-144.98;100.00;62585.19;4937271;29;19949;-65
2023/03/07 12:15:45;;;;;;;;;;;;;;;-144.98;100.00;62585.19;4937187;29;19957;-65
2023/03/07 12:18:56;;;;;;;;;;;;;;;-144.98;100.00;62585.19;4937023;29;19929;-65
2023/03/07 12:22:00;;;;;;;;;;;;;;;-144.98;100.00;62585.19;4937025;29;19961;-66
2023/03/07 12:25:19;;;;;;;;;;;;;;;-144.98;100.00;62585.19;4936645;29;19929;-66
2023/03/07 12:28:25;;;;;;;;;;;;;;;-144.98;100.00;62585.19;4937207;29;20402;-66
2023/03/07 12:31:32;;;;;;;;;;;;;;;-144.98;100.00;62585.19;4937164;29;19935;-65
2023/03/07 12:34:45;;;;;;;;;;;;;;;-144.98;100.00;62585.19;4936989;29;19930;-66
2023/03/07 12:38:12;;;;;;;;;;;;;;;-144.98;100.00;62585.19;4936806;29;19929;-65
2023/03/07 12:41:22;;;;;;;;;;;;;;;-144.98;100.00;62585.19;4936787;29;19967;-66
2023/03/07 12:44:32;;;;;;;;;;;;;;;-144.98;100.00;62585.19;4937100;29;19966;-65
2023/03/07 12:47:38;;;;;;;;;;;;;;;-144.98;100.00;62585.19;4936516;29;19930;-65
2023/03/07 12:51:01;;;;;;;;;;;;;;;-144.98;100.00;62585.19;4936612;29;19997;-66
2023/03/07 12:54:23;;;;;;;;;;;;;;;-144.98;100.00;62585.19;4936291;29;19929;-66
2023/03/07 12:57:40;;;;;;;;;;;;;;;-144.98;100.00;62585.19;4936396;29;20398;-66
2023/03/07 13:00:48;;;;;;;;;;;;;;;-144.98;100.00;62585.19;4935885;29;19977;-67
2023/03/07 13:04:16;;;;;;;;;;;;;;;-144.98;100.00;62585.19;4936369;29;20414;-69
2023/03/07 13:07:28;;;;;;;;;;;;;;;-144.98;100.00;62585.19;4934516;29;19967;-67
2023/03/07 13:10:31;;;;;;;;;;;;;;;-144.98;100.00;62585.19;4936358;29;19925;-66
2023/03/07 13:13:41;;;;;;;;;;;;;;;-144.98;100.00;62585.19;4936149;29;20287;-67
2023/03/07 13:16:45;;;;;;;;;;;;;;;-144.98;100.00;62585.19;4936086;29;20409;-67
2023/03/07 13:19:53;;;;;;;;;;;;;;;-144.98;100.00;62585.19;4924631;29;19965;-66
2023/03/07 13:22:57;;;;;;;;;;;;;;;-144.98;100.00;62585.19;4936087;29;20387;-66
2023/03/07 13:26:04;;;;;;;;;;;;;;;-144.98;100.00;62585.19;4936335;29;19925;-66
2023/03/07 13:29:07;;;;;;;;;;;;;;;-144.98;100.00;62585.19;4935942;29;19925;-66
2023/03/07 13:32:29;;;;;;;;;;;;;;;-144.98;100.00;62585.19;4936170;29;19946;-66
2023/03/07 13:35:32;;;;;;;;;;;;;;;-144.98;100.00;62585.19;4935852;29;19978;-66
2023/03/07 13:38:45;;;;;;;;;;;;;;;-144.98;100.00;62585.19;4935314;29;19978;-67
2023/03/07 13:41:51;;;;;;;;;;;;;;;-144.98;100.00;62585.19;4935688;29;20380;-67
2023/03/07 13:44:57;;;;;;;;;;;;;;;-144.98;100.00;62585.19;4935689;29;19926;-67
2023/03/07 13:48:00;;;;;;;;;;;;;;;-144.98;100.00;62585.19;4935555;29;19971;-67
2023/03/07 13:51:07;;;;;;;;;;;;;;;-144.98;100.00;62585.19;4935295;29;19987;-67
2023/03/07 13:54:12;;;;;;;;;;;;;;;-144.98;100.00;62585.19;4935312;29;19926;-67
2023/03/07 13:57:17;;;;;;;;;;;;;;;-144.98;100.00;62585.19;4935514;29;19929;-68
2023/03/07 14:00:23;;;;;;;;;;;;;;;-144.98;100.00;62585.19;4935578;29;20032;-68
2023/03/07 14:03:39;;;;;;;;;;;;;;;-144.98;100.00;62585.19;4934859;29;20014;-68
2023/03/07 14:06:53;;;;;;;;;;;;;;;-144.98;100.00;62585.19;4935758;29;20392;-67
2023/03/07 14:10:08;;;;;;;;;;;;;;;-144.98;100.00;62585.19;4923548;29;20056;-67
2023/03/07 14:21:57;;;;;;;;;;;;;;;-144.98;100.00;62585.19;4935897;29;20036;-68
2023/03/07 14:25:38;;;;;;;;;;;;;;;-144.98;100.00;62585.19;4938182;29;19965;-67
2023/03/07 14:28:49;;;;;;;;;;;;;;;-144.98;100.00;62585.19;4929345;29;20383;-66
2023/03/07 14:31:55;;;;;;;;;;;;;;;-144.98;100.00;62585.19;4929383;29;19942;-67
2023/03/07 14:34:59;;;;;;;;;;;;;;;-144.98;100.00;62585.19;4925860;29;19965;-67
2023/03/07 14:38:23;;;;;;;;;;;;;;;-144.98;100.00;62585.19;4920146;29;19934;-68
2023/03/07 14:41:34;;;;;;;;;;;;;;;-144.98;100.00;62585.19;4920027;29;20395;-68
2023/03/07 14:44:37;;;;;;;;;;;;;;;-144.98;100.00;62585.19;4919977;29;19974;-68
2023/03/07 14:48:07;;;;;;;;;;;;;;;-144.98;100.00;62585.19;4919754;29;20295;-67
2023/03/07 14:51:13;;;;;;;;;;;;;;;-144.98;100.00;62585.19;4919840;29;19926;-67
2023/03/07 14:54:19;;;;;;;;;;;;;;;-144.98;100.00;62585.19;4919609;29;19970;-68
2023/03/07 14:57:28;;;;;;;;;;;;;;;-144.98;100.00;62585.19;4919717;29;19979;-67
2023/03/07 15:00:33;;;;;;;;;;;;;;;-144.98;100.00;62585.19;4919742;29;19926;-68
2023/03/07 15:03:44;;;;;;;;;;;;;;;-144.98;100.00;62585.19;4919613;29;20019;-67
2023/03/07 15:06:56;;;;;;;;;;;;;;;-144.98;100.00;62585.19;4919519;29;19926;-67
2023/03/07 15:10:01;;;;;;;;;;;;;;;-144.98;100.00;62585.19;4919092;29;20399;-68
2023/03/07 15:13:07;;;;;;;;;;;;;;;-144.98;100.00;62585.19;4919658;29;19961;-68
2023/03/07 15:16:15;;;;;;;;;;;;;;;-144.98;100.00;62585.19;4919334;29;20295;-67
2023/03/07 15:19:19;;;;;;;;;;;;;;;-144.98;100.00;62585.19;4919266;29;20036;-70
2023/03/07 15:22:23;;;;;;;;;;;;;;;-144.98;100.00;62585.19;4919039;29;20027;-69
2023/03/07 15:25:26;;;;;;;;;;;;;;;-144.98;100.00;62585.19;4918946;29;20340;-69
2023/03/07 15:28:41;;;;;;;;;;;;;;;-144.98;100.00;62585.19;4919168;29;19942;-70
2023/03/07 15:31:56;;;;;;;;;;;;;;;-144.98;100.00;62585.19;4918887;29;19930;-68
2023/03/07 15:35:00;;;;;;;;;;;;;;;-144.98;100.00;62585.19;4918304;29;19926;-68
2023/03/07 15:38:13;;;;;;;;;;;;;;;-144.98;100.00;62585.19;4918891;29;19982;-69
2023/03/07 15:41:27;;;;;;;;;;;;;;;-144.98;100.00;62585.19;4918677;29;19942;-69
2023/03/07 15:44:31;;;;;;;;;;;;;;;-144.98;100.00;62585.19;4918943;29;19943;-69
2023/03/07 15:47:34;;;;;;;;;;;;;;;-144.98;100.00;62585.19;4932698;29;19971;-70
2023/03/07 15:50:38;;;;;;;;;;;;;;;-144.98;100.00;62585.19;4933815;29;19941;-67
2023/03/07 15:53:42;;;;;;;;;;;;;;;-144.98;100.00;62585.19;4937507;29;19967;-69
2023/03/07 15:56:46;;;;;;;;;;;;;;;-144.98;100.00;62585.19;4937571;29;19941;-72
2023/03/07 15:59:53;;;;;;;;;;;;;;;-144.98;100.00;62585.19;4937580;29;19967;-72
2023/03/07 16:03:16;;;;;;;;;;;;;;;-144.98;100.00;62585.19;4937835;29;20314;-69
2023/03/07 16:06:38;;;;;;;;;;;;;;;-144.98;100.00;62585.19;4932303;29;19925;-70
2023/03/07 16:09:41;;;;;;;;;;;;;;;-144.98;100.00;62585.19;4937230;29;19925;-71
2023/03/07 16:12:45;;;;;;;;;;;;;;;-144.98;100.00;62585.19;4936210;29;19975;-69
2023/03/07 16:16:04;;;;;;;;;;;;;;;-144.98;100.00;62585.19;4913205;29;20451;-69
2023/03/07 16:19:10;;;;;;;;;;;;;;;-144.98;100.00;62585.19;4937308;29;19977;-69
2023/03/07 16:22:15;;;;;;;;;;;;;;;-144.98;100.00;62585.19;4937241;29;19965;-68